Rhinebeck, NY (12572)

8:29 PM EST on January 29, 2015 (GMT -0500)
Village | Change Station
CLOSE
Current Station
Personal Weather Station
Location: Rhinebeck, NY
Elevation: 200 ft
Nearby Weather Stations

Elev 200 ft 41.94 °N, 73.91 °W | Updated 13 minutes ago

Overcast
Overcast
28.4 °F
Feels Like 28 °F
N
2.2
Wind Variable Wind from SSE

Today
High -- | Low -- °F
--% Chance of Precip.
Yesterday
High -- | Low -- °F
Precip. -- in
7:11 AM 5:06 PM
Waxing Gibbous, 78% visible
Pressure 30.06 in
Visibility 10.0 miles
Clouds Mostly Cloudy 2200 ft
Mostly Cloudy 7500 ft
Overcast 9000 ft
Windchill 28 °F
Dew Point 15 °F
Humidity 57%
Rainfall 0.02 in
Snow Depth Not available.
UV 0 out of 12
Pollen .10 out of 12
Air Quality Not available.
Flu Activity Not available.
SPECI KPOU 300116Z AUTO 16005KT 10SM BKN022 BKN075 OVC090 M01/M08 A3006 RMK AO2 T10061078 TSNO

More Conditions Fewer Conditions

Pressure 30.06 in
Visibility 10.0 miles
Clouds Mostly Cloudy 2200 ft
Mostly Cloudy 7500 ft
Overcast 9000 ft
Windchill 28 °F
Dew Point 15 °F
Humidity 57%
Rainfall 0.02 in
Snow Depth Not available.
UV 0 out of 12
Pollen .10 out of 12
Air Quality Not available.
Flu Activity Not available.
SPECI KPOU 300116Z AUTO 16005KT 10SM BKN022 BKN075 OVC090 M01/M08 A3006 RMK AO2 T10061078 TSNO

More Conditions Fewer Conditions

10-Day Weather Forecast

Almanac

Astronomy

Jan. 29, 2015 Rise Set
Actual Time
Civil Twilight
Nautical Twilight
Astronomical Twilight
Moon
Length of Visible Light
Length of Day
Tomorrow will be .
, % of the Moon is Illuminated

Today's Extremes

State Highs State Lows

Community

WunderPhotos

Upload Photos

1,791,668 photos uploaded!

WunderBlogs® & News

Nearby

Air Quality

  Air Quality AQ Index Pollutant
Not available.

Snow Depth

Station Depth Elevation

Earthquake Activity

City Distance Mag. Time & Date
Minimum magnitude displayed is 2.5.

Coastal Water Temperatures

Place Temperature

Nearby Weather Stations